Time;durP1;ratioP1;P1;durP2;ratioP2;P2;SDS_P1;SDS_P2;PMS_P1;PMS_P2;Temp;Humidity;BMP_temperature;BMP_pressure;BME280_temperature;BME280_humidity;BME280_pressure;Samples;Min_cycle;Max_cycle;Signal;HPM_P1;HPM_P2
2023/06/19 00:00:12;;;;;;;3.60;2.30;;;;;;;;;;12418005;23;20032;-88
2023/06/19 00:05:17;;;;;;;2.10;1.88;;;;;;;;;;12452946;23;20832;-88
2023/06/19 00:10:22;;;;;;;2.55;2.25;;;;;;;;;;12453859;23;20353;-88
2023/06/19 00:15:29;;;;;;;2.40;2.10;;;;;;;;;;12497769;23;21459;-89
2023/06/19 00:20:35;;;;;;;3.72;2.55;;;;;;;;;;12452590;23;20031;-89
2023/06/19 00:25:41;;;;;;;;;;;;;;;;;;12455056;23;20396;-88
2023/06/19 00:30:45;;;;;;;2.40;2.10;;;;;;;;;;12454389;23;19917;-89
2023/06/19 00:35:55;;;;;;;2.22;2.03;;;;;;;;;;12453264;23;20585;-89
2023/06/19 00:41:00;;;;;;;3.20;2.17;;;;;;;;;;12454744;23;20027;-89
2023/06/19 00:46:04;;;;;;;2.70;2.30;;;;;;;;;;12452939;23;20028;-89
2023/06/19 00:51:11;;;;;;;3.30;2.53;;;;;;;;;;12454582;23;20038;-89
2023/06/19 00:56:18;;;;;;;2.50;2.15;;;;;;;;;;12452816;23;20027;-89
2023/06/19 01:01:23;;;;;;;3.97;2.05;;;;;;;;;;12453581;23;20031;-89
2023/06/19 01:06:38;;;;;;;2.58;2.33;;;;;;;;;;12455194;23;20027;-89
2023/06/19 01:11:46;;;;;;;2.88;1.98;;;;;;;;;;12453932;23;20094;-89
2023/06/19 01:16:50;;;;;;;2.25;1.83;;;;;;;;;;12419745;23;20031;-89
2023/06/19 01:21:54;;;;;;;2.35;2.10;;;;;;;;;;12451274;23;20031;-89
2023/06/19 01:27:00;;;;;;;2.25;1.90;;;;;;;;;;12448850;23;20030;-89
2023/06/19 01:32:11;;;;;;;2.80;2.45;;;;;;;;;;12451896;23;20031;-89
2023/06/19 01:37:15;;;;;;;2.40;2.13;;;;;;;;;;12452026;23;20098;-89
2023/06/19 01:42:20;;;;;;;3.20;2.35;;;;;;;;;;12453224;23;20046;-89
2023/06/19 01:47:24;;;;;;;2.35;2.03;;;;;;;;;;12452547;23;20035;-89
2023/06/19 01:52:28;;;;;;;3.22;2.08;;;;;;;;;;12453297;23;20106;-88
2023/06/19 01:57:34;;;;;;;2.53;2.13;;;;;;;;;;12456853;23;20046;-89
2023/06/19 02:02:38;;;;;;;2.72;2.28;;;;;;;;;;12458303;23;20062;-89
2023/06/19 02:07:41;;;;;;;2.53;1.98;;;;;;;;;;12455309;23;20082;-89
2023/06/19 02:12:46;;;;;;;2.13;1.92;;;;;;;;;;12458875;23;20208;-90
2023/06/19 02:17:54;;;;;;;2.83;2.20;;;;;;;;;;12462475;23;20463;-90
2023/06/19 02:22:58;;;;;;;2.78;2.45;;;;;;;;;;12462337;23;20468;-91
2023/06/19 02:28:04;;;;;;;2.63;2.10;;;;;;;;;;12459854;23;20412;-90
2023/06/19 02:33:08;;;;;;;3.03;2.42;;;;;;;;;;12464343;23;20030;-84
2023/06/19 02:38:12;;;;;;;2.30;2.00;;;;;;;;;;12494184;23;20416;-84
2023/06/19 02:43:16;;;;;;;3.20;2.30;;;;;;;;;;12493466;23;20483;-84
2023/06/19 02:48:20;;;;;;;2.25;2.05;;;;;;;;;;12490937;23;20451;-83
2023/06/19 02:53:23;;;;;;;2.10;1.90;;;;;;;;;;12494399;23;20024;-83
2023/06/19 02:58:28;;;;;;;2.25;2.00;;;;;;;;;;12492108;23;20367;-83
2023/06/19 03:03:31;;;;;;;2.50;1.90;;;;;;;;;;12500122;23;20027;-83
2023/06/19 03:08:35;;;;;;;2.17;1.98;;;;;;;;;;12500966;23;20079;-83
2023/06/19 03:13:48;;;;;;;2.00;1.80;;;;;;;;;;12494540;23;20027;-83
2023/06/19 03:18:51;;;;;;;2.15;1.92;;;;;;;;;;12496943;23;20038;-83
2023/06/19 03:23:57;;;;;;;2.08;1.85;;;;;;;;;;12490604;23;20360;-83
2023/06/19 03:29:02;;;;;;;2.80;2.10;;;;;;;;;;12489720;23;20100;-84
2023/06/19 03:34:19;;;;;;;4.07;1.80;;;;;;;;;;12488791;23;20307;-86
2023/06/19 03:39:23;;;;;;;1.80;1.60;;;;;;;;;;12485402;23;20050;-84
2023/06/19 03:44:29;;;;;;;1.83;1.73;;;;;;;;;;12487375;23;20434;-85
2023/06/19 03:49:33;;;;;;;;;;;;;;;;;;12489873;23;20086;-85
2023/06/19 03:54:37;;;;;;;1.17;1.08;;;;;;;;;;12488664;23;20143;-84
2023/06/19 03:59:41;;;;;;;1.20;1.10;;;;;;;;;;12487650;23;20070;-85
2023/06/19 04:04:46;;;;;;;1.92;1.30;;;;;;;;;;12488944;23;20455;-83
2023/06/19 04:09:50;;;;;;;1.05;0.95;;;;;;;;;;12487683;23;20031;-85
2023/06/19 04:14:55;;;;;;;1.35;1.10;;;;;;;;;;12486988;23;20087;-85
2023/06/19 04:19:58;;;;;;;1.30;1.20;;;;;;;;;;12487123;23;20235;-85
2023/06/19 04:25:02;;;;;;;1.65;1.27;;;;;;;;;;12489586;23;20535;-84
2023/06/19 04:30:08;;;;;;;1.30;1.20;;;;;;;;;;12486389;23;20023;-84
2023/06/19 04:35:11;;;;;;;;;;;;;;;;;;12487239;23;20026;-85
2023/06/19 04:40:14;;;;;;;1.13;0.90;;;;;;;;;;12487013;23;19922;-85
2023/06/19 04:45:19;;;;;;;0.95;0.88;;;;;;;;;;12489000;23;20030;-83
2023/06/19 04:50:23;;;;;;;1.73;1.10;;;;;;;;;;12485258;23;20023;-85
2023/06/19 04:55:26;;;;;;;0.80;0.80;;;;;;;;;;12488421;23;20374;-85
2023/06/19 05:00:31;;;;;;;2.65;1.00;;;;;;;;;;12485320;23;20023;-84
2023/06/19 05:05:34;;;;;;;1.37;1.10;;;;;;;;;;12484923;23;20091;-86
2023/06/19 05:10:38;;;;;;;2.97;1.98;;;;;;;;;;12485407;23;20019;-84
2023/06/19 05:15:42;;;;;;;1.35;1.17;;;;;;;;;;12485121;23;20026;-84
2023/06/19 05:20:46;;;;;;;2.17;1.30;;;;;;;;;;12482953;23;20035;-83
2023/06/19 05:25:49;;;;;;;1.35;1.15;;;;;;;;;;12486460;23;20038;-84
2023/06/19 05:30:54;;;;;;;1.92;1.33;;;;;;;;;;12484720;23;20019;-84
2023/06/19 05:35:57;;;;;;;2.00;1.60;;;;;;;;;;12481993;23;20039;-85
2023/06/19 05:41:00;;;;;;;1.00;0.90;;;;;;;;;;12484897;23;20030;-85
2023/06/19 05:46:05;;;;;;;0.85;0.82;;;;;;;;;;12483349;23;20405;-84
2023/06/19 05:51:09;;;;;;;1.10;1.00;;;;;;;;;;12501638;23;20074;-84
2023/06/19 05:56:12;;;;;;;1.30;1.20;;;;;;;;;;12484073;23;20247;-84
2023/06/19 06:01:17;;;;;;;3.00;1.80;;;;;;;;;;12483944;23;20030;-84
2023/06/19 06:06:21;;;;;;;2.60;2.38;;;;;;;;;;12483370;23;20141;-85
2023/06/19 06:11:24;;;;;;;1.92;1.80;;;;;;;;;;12482471;23;20059;-85
2023/06/19 06:16:29;;;;;;;3.15;1.85;;;;;;;;;;12481409;23;20354;-85
2023/06/19 06:21:34;;;;;;;2.55;2.08;;;;;;;;;;12498602;23;20387;-84
2023/06/19 06:26:37;;;;;;;1.70;1.50;;;;;;;;;;12482570;23;20459;-83
2023/06/19 06:31:42;;;;;;;1.75;1.60;;;;;;;;;;12484450;23;20051;-83
2023/06/19 06:36:45;;;;;;;1.77;1.55;;;;;;;;;;12484291;23;20027;-83
2023/06/19 06:41:55;;;;;;;3.03;2.13;;;;;;;;;;12486865;23;20035;-84
2023/06/19 06:47:00;;;;;;;3.03;2.50;;;;;;;;;;12482355;23;20031;-83
2023/06/19 06:52:05;;;;;;;2.65;2.13;;;;;;;;;;12485474;23;20038;-83
2023/06/19 06:57:08;;;;;;;3.10;2.80;;;;;;;;;;12485511;23;20059;-83
2023/06/19 07:02:13;;;;;;;2.45;2.22;;;;;;;;;;12483886;23;20023;-82
2023/06/19 07:07:16;;;;;;;2.47;2.00;;;;;;;;;;12484006;23;20039;-84
2023/06/19 07:12:31;;;;;;;2.43;2.20;;;;;;;;;;12493218;23;20094;-84
2023/06/19 07:17:40;;;;;;;2.90;1.57;;;;;;;;;;12481966;23;20471;-83
2023/06/19 07:22:46;;;;;;;3.08;2.13;;;;;;;;;;12479393;23;20023;-83
2023/06/19 07:27:50;;;;;;;2.60;2.40;;;;;;;;;;12479284;23;20114;-83
2023/06/19 07:32:58;;;;;;;3.22;2.63;;;;;;;;;;12490186;23;20019;-84
2023/06/19 07:38:04;;;;;;;2.92;2.40;;;;;;;;;;12488280;23;20027;-83
2023/06/19 07:43:10;;;;;;;3.25;2.75;;;;;;;;;;12477555;23;20110;-83
2023/06/19 07:48:15;;;;;;;3.97;2.42;;;;;;;;;;12484788;23;20031;-83
2023/06/19 07:53:19;;;;;;;2.63;2.00;;;;;;;;;;12492612;23;20080;-84
2023/06/19 07:58:22;;;;;;;3.92;2.60;;;;;;;;;;12492589;23;20038;-84
2023/06/19 08:03:27;;;;;;;2.42;2.22;;;;;;;;;;12501179;23;20026;-84
2023/06/19 08:08:30;;;;;;;2.50;2.30;;;;;;;;;;12491734;23;20049;-84
2023/06/19 08:13:33;;;;;;;2.70;2.50;;;;;;;;;;12494764;23;20467;-82
2023/06/19 08:18:38;;;;;;;3.03;2.38;;;;;;;;;;12492080;23;20054;-84
2023/06/19 08:23:43;;;;;;;3.92;2.50;;;;;;;;;;12493245;23;20038;-83
2023/06/19 08:28:47;;;;;;;2.67;2.07;;;;;;;;;;12501983;23;20079;-84
2023/06/19 08:47:28;;;;;;;2.65;2.38;;;;;;;;;;12493095;23;20052;-82
2023/06/19 09:18:54;;;;;;;3.28;2.40;;;;;;;;;;11955857;24;20031;-81
2023/06/19 10:17:36;;;;;;;3.28;1.90;;;;;;;;;;12462130;23;20106;-89
2023/06/19 10:22:58;;;;;;;2.95;1.60;;;;;;;;;;12483720;23;20035;-93
2023/06/19 10:28:05;;;;;;;1.60;1.50;;;;;;;;;;12482594;23;20019;-90
2023/06/19 10:33:11;;;;;;;2.10;1.85;;;;;;;;;;12483040;23;20502;-89
2023/06/19 10:38:16;;;;;;;1.98;1.75;;;;;;;;;;12482365;23;20033;-91
2023/06/19 10:43:27;;;;;;;1.42;1.33;;;;;;;;;;12480133;23;20038;-85
2023/06/19 10:48:32;;;;;;;2.10;1.67;;;;;;;;;;12477723;23;20027;-85
2023/06/19 10:53:37;;;;;;;2.58;1.77;;;;;;;;;;12478196;23;20031;-86
2023/06/19 10:58:41;;;;;;;3.03;1.95;;;;;;;;;;12476189;23;20031;-86
2023/06/19 11:03:47;;;;;;;2.42;1.80;;;;;;;;;;12476958;23;20035;-85
2023/06/19 11:08:53;;;;;;;2.10;1.90;;;;;;;;;;12478727;23;20019;-86
2023/06/19 11:13:57;;;;;;;1.40;1.30;;;;;;;;;;12477619;23;20038;-85
2023/06/19 11:19:04;;;;;;;3.37;2.07;;;;;;;;;;12476366;23;20821;-85
2023/06/19 11:24:11;;;;;;;1.75;1.65;;;;;;;;;;12476164;23;20028;-86
2023/06/19 11:29:18;;;;;;;1.33;1.20;;;;;;;;;;12475712;23;20110;-85
2023/06/19 11:34:33;;;;;;;2.03;1.70;;;;;;;;;;12476566;23;20034;-85
2023/06/19 11:39:37;;;;;;;3.80;1.23;;;;;;;;;;12474961;23;20090;-85
2023/06/19 11:44:55;;;;;;;1.17;0.83;;;;;;;;;;12476914;23;20075;-85
2023/06/19 11:50:00;;;;;;;2.10;1.65;;;;;;;;;;12475339;23;20054;-86
2023/06/19 11:55:09;;;;;;;1.92;1.20;;;;;;;;;;12475752;23;20719;-85
2023/06/19 12:00:17;;;;;;;1.75;1.55;;;;;;;;;;12475322;23;20550;-85
2023/06/19 12:05:22;;;;;;;2.15;1.65;;;;;;;;;;12476764;23;20049;-86
2023/06/19 12:10:26;;;;;;;1.70;1.42;;;;;;;;;;12476349;23;20048;-85
2023/06/19 12:15:29;;;;;;;1.70;1.23;;;;;;;;;;12475101;23;20636;-86
2023/06/19 12:20:34;;;;;;;1.50;1.40;;;;;;;;;;12477027;23;20074;-85
2023/06/19 12:25:40;;;;;;;1.65;1.50;;;;;;;;;;12474884;23;20110;-85
2023/06/19 12:30:44;;;;;;;2.65;1.10;;;;;;;;;;12494064;23;20023;-86
2023/06/19 12:35:49;;;;;;;1.40;1.30;;;;;;;;;;12474915;23;20023;-86
2023/06/19 12:40:52;;;;;;;1.35;1.10;;;;;;;;;;12477111;23;20523;-86
2023/06/19 12:45:56;;;;;;;1.73;1.60;;;;;;;;;;12474582;23;20090;-85
2023/06/19 12:51:01;;;;;;;2.90;2.13;;;;;;;;;;12475506;23;20261;-86
2023/06/19 12:56:05;;;;;;;1.52;1.42;;;;;;;;;;12474352;23;20041;-85
2023/06/19 13:01:10;;;;;;;1.50;1.40;;;;;;;;;;12473828;23;20031;-86
2023/06/19 13:06:15;;;;;;;1.58;1.42;;;;;;;;;;12476922;23;20467;-87
2023/06/19 13:11:18;;;;;;;1.27;1.17;;;;;;;;;;12475224;23;20218;-86
2023/06/19 13:16:24;;;;;;;1.10;1.00;;;;;;;;;;12473048;23;20424;-85
2023/06/19 13:21:35;;;;;;;2.17;1.05;;;;;;;;;;12474272;23;20058;-86
2023/06/19 13:26:39;;;;;;;0.82;0.82;;;;;;;;;;12475264;23;20368;-85
2023/06/19 13:31:42;;;;;;;1.20;1.10;;;;;;;;;;12471732;23;20289;-86
2023/06/19 13:36:49;;;;;;;1.88;1.40;;;;;;;;;;12472096;23;20079;-85
2023/06/19 13:41:55;;;;;;;0.98;0.90;;;;;;;;;;12473618;23;20434;-86
2023/06/19 13:46:59;;;;;;;1.65;1.52;;;;;;;;;;12472078;23;20031;-86
2023/06/19 13:52:05;;;;;;;2.22;1.30;;;;;;;;;;12471240;23;20197;-86
2023/06/19 13:57:08;;;;;;;1.38;1.15;;;;;;;;;;12472235;23;20102;-86
2023/06/19 14:02:12;;;;;;;1.77;1.50;;;;;;;;;;12474511;23;20028;-86
2023/06/19 14:07:18;;;;;;;2.00;1.30;;;;;;;;;;12472664;23;20118;-86
2023/06/19 14:12:22;;;;;;;1.55;1.45;;;;;;;;;;12482692;23;20045;-88
2023/06/19 14:17:26;;;;;;;1.33;1.23;;;;;;;;;;12473793;23;20351;-87
2023/06/19 14:22:31;;;;;;;1.27;1.10;;;;;;;;;;12474754;23;20104;-86
2023/06/19 14:27:35;;;;;;;1.50;1.30;;;;;;;;;;12472173;23;20030;-92
2023/06/19 14:32:41;;;;;;;3.30;1.50;;;;;;;;;;12481425;23;20086;-84
2023/06/19 14:37:47;;;;;;;1.98;1.77;;;;;;;;;;12488398;23;20031;-83
2023/06/19 14:42:50;;;;;;;2.05;1.25;;;;;;;;;;12490293;23;20340;-83
2023/06/19 14:47:53;;;;;;;1.63;1.38;;;;;;;;;;12500146;23;20028;-82
2023/06/19 14:52:58;;;;;;;1.85;1.55;;;;;;;;;;12502212;23;20035;-83
2023/06/19 14:58:02;;;;;;;2.17;1.45;;;;;;;;;;12491281;23;20026;-84
2023/06/19 15:03:06;;;;;;;2.03;1.50;;;;;;;;;;12492995;23;20039;-83
2023/06/19 15:08:11;;;;;;;1.48;1.20;;;;;;;;;;12502206;23;20026;-84
2023/06/19 15:13:15;;;;;;;2.30;1.90;;;;;;;;;;12496555;23;20023;-83
2023/06/19 15:18:19;;;;;;;1.55;1.30;;;;;;;;;;12491230;23;20468;-84
2023/06/19 15:23:23;;;;;;;1.40;1.30;;;;;;;;;;12491646;23;20031;-83
2023/06/19 15:28:27;;;;;;;2.72;1.60;;;;;;;;;;12499999;23;20023;-83
2023/06/19 15:33:30;;;;;;;3.05;1.20;;;;;;;;;;12501768;23;20023;-83
2023/06/19 15:38:35;;;;;;;1.27;1.08;;;;;;;;;;12491426;23;20015;-83
2023/06/19 15:43:40;;;;;;;1.45;1.25;;;;;;;;;;12492484;23;20034;-82
2023/06/19 15:48:43;;;;;;;1.50;1.40;;;;;;;;;;12492807;23;20019;-83
2023/06/19 15:53:48;;;;;;;1.90;1.35;;;;;;;;;;12491836;23;20043;-84
2023/06/19 15:58:51;;;;;;;1.10;0.98;;;;;;;;;;12491284;23;20027;-83
2023/06/19 16:03:55;;;;;;;2.03;1.50;;;;;;;;;;12498735;23;20351;-83
2023/06/19 16:08:59;;;;;;;1.15;0.98;;;;;;;;;;12497664;23;20023;-82
2023/06/19 16:14:03;;;;;;;1.30;1.20;;;;;;;;;;12489491;23;20034;-82
2023/06/19 16:19:06;;;;;;;1.63;1.50;;;;;;;;;;12487156;23;20020;-83
2023/06/19 16:24:11;;;;;;;1.90;1.30;;;;;;;;;;12490168;23;20045;-83
2023/06/19 16:29:14;;;;;;;1.85;1.48;;;;;;;;;;12491109;23;20023;-82
2023/06/19 16:34:17;;;;;;;2.38;1.33;;;;;;;;;;12485244;23;20023;-82
2023/06/19 16:39:22;;;;;;;1.67;1.58;;;;;;;;;;12483116;23;20483;-83
2023/06/19 16:44:25;;;;;;;1.30;1.20;;;;;;;;;;12484028;23;20058;-82
2023/06/19 16:49:29;;;;;;;2.75;2.08;;;;;;;;;;12482341;23;20038;-83
2023/06/19 16:54:33;;;;;;;2.67;1.20;;;;;;;;;;12482980;23;20046;-82
2023/06/19 16:59:37;;;;;;;1.33;1.13;;;;;;;;;;12480669;23;20019;-82
2023/06/19 17:04:40;;;;;;;2.80;1.60;;;;;;;;;;12481573;23;20109;-82
2023/06/19 17:09:46;;;;;;;1.70;1.38;;;;;;;;;;12484308;23;20471;-82
2023/06/19 17:14:49;;;;;;;1.30;1.00;;;;;;;;;;12480346;23;20027;-82
2023/06/19 17:19:53;;;;;;;0.80;0.80;;;;;;;;;;12480214;23;20110;-83
2023/06/19 17:24:57;;;;;;;1.10;1.00;;;;;;;;;;12479775;23;20118;-82
2023/06/19 17:30:02;;;;;;;1.13;1.00;;;;;;;;;;12477090;23;20019;-82
2023/06/19 17:35:08;;;;;;;1.60;1.05;;;;;;;;;;12477230;23;20047;-83
2023/06/19 17:40:13;;;;;;;1.08;0.98;;;;;;;;;;12477240;23;20042;-83
2023/06/19 17:45:17;;;;;;;1.35;1.13;;;;;;;;;;12501012;23;20023;-82
2023/06/19 17:50:20;;;;;;;1.42;1.10;;;;;;;;;;12491814;23;20027;-82
2023/06/19 17:55:25;;;;;;;1.90;1.30;;;;;;;;;;12495343;23;20035;-83
2023/06/19 18:00:28;;;;;;;1.40;1.20;;;;;;;;;;12494723;23;20028;-83
2023/06/19 18:05:32;;;;;;;1.65;1.10;;;;;;;;;;12493751;23;20258;-83
2023/06/19 18:10:36;;;;;;;1.00;0.90;;;;;;;;;;12493060;23;20103;-83
2023/06/19 18:15:42;;;;;;;1.58;0.90;;;;;;;;;;12494186;23;20015;-82
2023/06/19 18:20:45;;;;;;;1.38;0.88;;;;;;;;;;12494299;23;20019;-82
2023/06/19 18:25:51;;;;;;;0.90;0.82;;;;;;;;;;12512494;23;20019;-82
2023/06/19 18:30:54;;;;;;;1.20;1.10;;;;;;;;;;12494198;23;20505;-82
2023/06/19 18:35:57;;;;;;;1.00;0.73;;;;;;;;;;12513094;23;20019;-83
2023/06/19 18:41:02;;;;;;;1.00;0.90;;;;;;;;;;12488589;23;20359;-83
2023/06/19 18:46:05;;;;;;;0.70;0.70;;;;;;;;;;12488438;23;20046;-83
2023/06/19 18:51:08;;;;;;;1.05;0.95;;;;;;;;;;12505089;23;20098;-83
2023/06/19 18:56:14;;;;;;;1.35;1.00;;;;;;;;;;12488639;23;20023;-83
2023/06/19 19:01:17;;;;;;;1.23;1.13;;;;;;;;;;12486746;23;20534;-83
2023/06/19 19:06:21;;;;;;;1.08;0.98;;;;;;;;;;12501935;23;20367;-83
2023/06/19 19:11:26;;;;;;;1.05;0.95;;;;;;;;;;12487032;23;20062;-83
2023/06/19 19:16:29;;;;;;;1.05;0.95;;;;;;;;;;12486046;23;20023;-83
2023/06/19 19:21:32;;;;;;;1.10;1.00;;;;;;;;;;12484869;23;20574;-83
2023/06/19 19:26:37;;;;;;;1.25;1.15;;;;;;;;;;12483061;23;20023;-83
2023/06/19 19:31:41;;;;;;;1.70;1.25;;;;;;;;;;12484174;23;20058;-83
2023/06/19 19:36:44;;;;;;;1.15;1.05;;;;;;;;;;12483633;23;20102;-83
2023/06/19 19:41:49;;;;;;;2.45;1.00;;;;;;;;;;12500948;23;20035;-83
2023/06/19 19:46:53;;;;;;;1.47;1.10;;;;;;;;;;12484466;23;20027;-83
2023/06/19 19:51:56;;;;;;;1.20;1.10;;;;;;;;;;12485832;23;20069;-83
2023/06/19 19:57:01;;;;;;;2.00;1.05;;;;;;;;;;12485159;23;20054;-83
2023/06/19 20:02:09;;;;;;;1.77;1.40;;;;;;;;;;12484548;23;20046;-83
2023/06/19 20:07:13;;;;;;;1.50;0.95;;;;;;;;;;12484890;23;20046;-83
2023/06/19 20:12:17;;;;;;;1.33;0.98;;;;;;;;;;12485162;23;20522;-83
2023/06/19 20:17:27;;;;;;;1.48;1.10;;;;;;;;;;12483976;23;20027;-83
2023/06/19 20:22:31;;;;;;;1.10;0.97;;;;;;;;;;12486004;23;20031;-84
2023/06/19 20:27:39;;;;;;;1.42;1.30;;;;;;;;;;12492333;23;20023;-83
2023/06/19 20:38:20;;;;;;;2.33;1.55;;;;;;;;;;12477196;23;20019;-86
2023/06/19 20:43:26;;;;;;;1.90;1.55;;;;;;;;;;12479128;23;20031;-86
2023/06/19 20:48:30;;;;;;;1.65;1.23;;;;;;;;;;12479025;23;20205;-86
2023/06/19 20:53:34;;;;;;;2.20;1.20;;;;;;;;;;12476762;23;20031;-87
2023/06/19 20:58:39;;;;;;;1.48;1.33;;;;;;;;;;12475195;23;20083;-87
2023/06/19 21:03:43;;;;;;;1.40;1.27;;;;;;;;;;12476997;23;20198;-86
2023/06/19 21:08:48;;;;;;;1.48;1.20;;;;;;;;;;12478297;23;20035;-86
2023/06/19 21:13:53;;;;;;;1.10;1.00;;;;;;;;;;12477830;23;20479;-87
2023/06/19 21:18:56;;;;;;;1.30;1.10;;;;;;;;;;12477936;23;20087;-87
2023/06/19 21:24:00;;;;;;;1.25;1.10;;;;;;;;;;12477249;23;20023;-86
2023/06/19 21:29:04;;;;;;;2.60;1.50;;;;;;;;;;12476189;23;20090;-87
2023/06/19 21:34:08;;;;;;;3.43;1.33;;;;;;;;;;12475562;23;20478;-86
2023/06/19 21:39:11;;;;;;;1.55;1.17;;;;;;;;;;12476851;23;20531;-87
2023/06/19 21:44:16;;;;;;;1.60;1.35;;;;;;;;;;12477184;23;20038;-86
2023/06/19 21:49:20;;;;;;;1.30;1.20;;;;;;;;;;12477155;23;20355;-86
2023/06/19 21:54:23;;;;;;;1.50;1.20;;;;;;;;;;12475980;23;20023;-86
2023/06/19 21:59:28;;;;;;;1.73;1.17;;;;;;;;;;12475148;23;20350;-87
2023/06/19 22:04:32;;;;;;;2.00;1.20;;;;;;;;;;12477135;23;20020;-85
2023/06/19 22:09:35;;;;;;;1.38;1.17;;;;;;;;;;12475826;23;20659;-87
2023/06/19 22:14:40;;;;;;;1.52;1.10;;;;;;;;;;12480376;23;20484;-87
2023/06/19 22:19:44;;;;;;;1.27;1.17;;;;;;;;;;12480698;23;20027;-86
2023/06/19 22:24:47;;;;;;;1.15;1.05;;;;;;;;;;12481333;23;20478;-86
2023/06/19 22:29:52;;;;;;;1.33;1.23;;;;;;;;;;12479047;23;20027;-86
2023/06/19 22:34:56;;;;;;;1.10;1.00;;;;;;;;;;12481286;23;20028;-86
2023/06/19 22:39:59;;;;;;;1.05;0.73;;;;;;;;;;12479821;23;20027;-85
2023/06/19 22:45:05;;;;;;;1.13;1.02;;;;;;;;;;12479476;23;20046;-86
2023/06/19 22:50:10;;;;;;;2.55;1.20;;;;;;;;;;12478055;23;20027;-85
2023/06/19 22:55:13;;;;;;;1.90;1.37;;;;;;;;;;12481547;23;20430;-86
2023/06/19 23:00:18;;;;;;;2.78;1.20;;;;;;;;;;12479532;23;20035;-86
2023/06/19 23:05:22;;;;;;;1.83;1.30;;;;;;;;;;12503602;23;20051;-85
2023/06/19 23:10:25;;;;;;;1.38;1.27;;;;;;;;;;12481502;23;20031;-86
2023/06/19 23:15:30;;;;;;;1.30;1.20;;;;;;;;;;12481984;23;20632;-86
2023/06/19 23:20:34;;;;;;;1.50;1.40;;;;;;;;;;12480270;23;20027;-85
2023/06/19 23:25:37;;;;;;;2.63;1.15;;;;;;;;;;12478488;23;20031;-86
2023/06/19 23:30:42;;;;;;;1.15;1.00;;;;;;;;;;12480584;23;20467;-86
2023/06/19 23:35:45;;;;;;;1.95;1.27;;;;;;;;;;12478901;23;20415;-86
2023/06/19 23:40:49;;;;;;;2.72;1.25;;;;;;;;;;12481401;23;20046;-86
2023/06/19 23:45:53;;;;;;;2.75;1.20;;;;;;;;;;12478340;23;20401;-86
2023/06/19 23:50:58;;;;;;;1.47;1.37;;;;;;;;;;12480521;23;20047;-87
2023/06/19 23:56:01;;;;;;;3.13;1.40;;;;;;;;;;12480021;23;20404;-87
